Time;durP1;ratioP1;P1;durP2;ratioP2;P2;SDS_P1;SDS_P2;PMS_P1;PMS_P2;Temp;Humidity;BMP_temperature;BMP_pressure;BME280_temperature;BME280_humidity;BME280_pressure;Samples;Min_cycle;Max_cycle;Signal;HPM_P1;HPM_P2
2023/10/02 00:27:21;;;;;;;10.60;4.50;;;;;;;8.24;81.65;98020.84;105772;1267;95830;-77
2023/10/02 00:30:35;;;;;;;9.20;4.80;;;;;;;8.21;81.88;98015.95;107408;1245;98525;-78
2023/10/02 00:33:42;;;;;;;8.60;4.30;;;;;;;8.20;82.20;98013.67;106519;1254;100212;-82
2023/10/02 00:36:49;;;;;;;10.60;5.00;;;;;;;8.20;82.28;98010.65;105400;1264;99974;-84
2023/10/02 00:40:00;;;;;;;7.50;4.40;;;;;;;8.19;82.26;98006.05;104323;1276;95884;-83
2023/10/02 01:58:23;;;;;;;6.00;4.00;;;;;;;9.65;82.77;98017.84;101411;1298;640514;-83
2023/10/02 02:01:46;;;;;;;8.40;4.10;;;;;;;9.53;83.11;98020.59;102850;1285;95952;-80
2023/10/02 02:55:42;;;;;;;9.00;5.00;;;;;;;9.30;84.67;98019.54;106201;1266;98980;-82
2023/10/02 02:58:34;;;;;;;8.10;4.90;;;;;;;9.30;84.67;98014.16;106383;1252;96725;-78
2023/10/02 03:01:24;;;;;;;11.70;4.80;;;;;;;9.30;84.64;98011.25;105990;1257;97139;-79
2023/10/02 03:04:31;;;;;;;7.60;4.50;;;;;;;9.31;84.74;98013.14;106135;1254;100408;-86
2023/10/02 03:07:29;;;;;;;9.50;4.40;;;;;;;9.31;84.71;98011.02;104861;1267;100267;-81
2023/10/02 03:10:36;;;;;;;10.30;4.80;;;;;;;9.30;84.85;98011.64;104343;1276;99912;-79
2023/10/02 03:13:43;;;;;;;8.20;4.10;;;;;;;9.31;84.83;98014.08;104145;1273;96801;-77
2023/10/02 03:16:53;;;;;;;8.30;5.30;;;;;;;9.32;84.83;98014.27;103796;1283;97844;-88
2023/10/02 03:54:43;;;;;;;11.40;5.20;;;;;;;9.82;85.30;98010.23;101597;1290;642705;-88
2023/10/02 03:57:54;;;;;;;7.20;4.70;;;;;;;9.95;85.38;98016.54;99243;1278;5339438;-87
2023/10/02 05:28:42;;;;;;;18.40;10.20;;;;;;;10.25;86.81;98049.05;105476;1262;99563;-84
2023/10/02 05:31:49;;;;;;;18.10;10.40;;;;;;;10.28;86.83;98048.60;106557;1249;101609;-87
2023/10/02 05:35:03;;;;;;;20.50;11.50;;;;;;;10.29;86.89;98053.84;105792;1261;98867;-80
2023/10/02 05:37:54;;;;;;;20.50;11.40;;;;;;;10.32;87.07;98061.30;105011;1264;95867;-80
2023/10/02 05:40:48;;;;;;;14.60;9.20;;;;;;;10.34;86.96;98060.16;104745;1273;96832;-80
2023/10/02 05:43:55;;;;;;;16.20;9.30;;;;;;;10.34;87.04;98056.55;104726;1267;100859;-80
2023/10/02 05:47:05;;;;;;;17.90;9.40;;;;;;;10.33;87.21;98051.52;104679;1267;101266;-77
2023/10/02 05:50:05;;;;;;;16.90;9.10;;;;;;;10.35;87.23;98050.25;103764;1280;100169;-77
2023/10/02 05:53:13;;;;;;;13.80;8.60;;;;;;;10.40;87.36;98051.56;103371;1286;97291;-78
2023/10/02 08:09:38;;;;;;;10.20;5.50;;;;;;;15.65;82.97;98074.53;105474;1265;98336;-81
2023/10/02 08:12:54;;;;;;;10.90;5.20;;;;;;;15.81;82.84;98070.15;105793;1262;96029;-83
2023/10/02 08:16:08;;;;;;;9.70;4.90;;;;;;;16.00;82.43;98070.23;105392;1264;96971;-82
2023/10/02 09:11:03;;;;;;;7.60;4.00;;;;;;;21.39;65.33;98019.84;105420;1267;98580;-83
2023/10/02 09:14:16;;;;;;;10.50;4.00;;;;;;;21.51;64.70;98017.11;106000;1258;95977;-83
2023/10/02 09:17:23;;;;;;;8.20;3.80;;;;;;;21.61;63.90;98016.17;106061;1257;97319;-83
2023/10/02 09:20:38;;;;;;;9.40;3.90;;;;;;;21.75;63.37;98014.41;105464;1261;99664;-87
2023/10/02 09:23:52;;;;;;;8.30;3.90;;;;;;;21.81;62.49;98015.55;104799;1270;101472;-87
2023/10/02 09:26:57;;;;;;;9.00;3.90;;;;;;;21.67;62.05;98005.20;104539;1272;98643;-83
2023/10/02 09:33:23;;;;;;;13.30;4.30;;;;;;;21.49;61.36;98004.96;104533;1271;96089;-85
2023/10/02 09:57:19;;;;;;;7.70;3.60;;;;;;;22.03;56.18;97992.77;101872;1293;654392;-83
2023/10/02 10:00:37;;;;;;;6.20;3.60;;;;;;;21.91;56.05;97998.45;99201;1283;5341351;-89
2023/10/02 10:07:46;;;;;;;7.40;3.70;;;;;;;21.59;57.29;97997.43;102221;1291;98578;-81
2023/10/02 10:37:59;;;;;;;3.50;2.30;;;;;;;22.04;55.06;97982.05;105154;1269;94270;-83
2023/10/02 10:41:23;;;;;;;5.00;2.70;;;;;;;21.82;55.49;97978.29;105581;1270;97013;-85
2023/10/02 10:44:32;;;;;;;4.70;2.60;;;;;;;21.64;56.04;97977.94;104691;1273;98165;-84
2023/10/02 10:47:37;;;;;;;4.60;2.30;;;;;;;21.43;56.47;97978.67;104381;1271;100531;-86
2023/10/02 11:23:29;;;;;;;5.60;2.30;;;;;;;21.10;58.88;97948.66;105544;1267;98232;-85
2023/10/02 11:26:36;;;;;;;3.80;2.40;;;;;;;21.03;59.21;97950.84;106817;1251;100358;-84
2023/10/02 11:30:00;;;;;;;4.40;2.30;;;;;;;21.02;59.14;97949.35;106365;1257;99404;-85
2023/10/02 11:33:07;;;;;;;3.90;2.60;;;;;;;20.99;59.67;97948.54;105026;1267;96287;-84
2023/10/02 11:36:11;;;;;;;3.90;2.40;;;;;;;20.94;59.72;97948.16;104640;1284;97354;-82
2023/10/02 11:39:27;;;;;;;4.40;2.80;;;;;;;20.91;59.39;97946.70;104239;1279;98525;-84
2023/10/02 12:59:10;;;;;;;6.30;1.70;;;;;;;20.61;59.81;97918.36;105266;1268;95923;-82
2023/10/02 13:02:07;;;;;;;2.00;1.40;;;;;;;20.62;60.62;97918.16;105891;1261;99320;-81
2023/10/02 13:05:14;;;;;;;2.40;1.50;;;;;;;20.62;60.01;97919.53;106968;1247;96345;-82
2023/10/02 13:08:11;;;;;;;2.30;1.30;;;;;;;20.61;60.20;97916.34;106510;1253;95952;-79
2023/10/02 13:11:12;;;;;;;3.80;1.50;;;;;;;20.62;60.09;97912.66;105967;1257;100796;-76
2023/10/02 13:14:19;;;;;;;4.20;1.40;;;;;;;20.60;59.76;97902.55;106015;1257;100010;-80
2023/10/02 13:17:28;;;;;;;3.60;1.90;;;;;;;20.59;59.82;97904.14;104861;1269;98952;-81
2023/10/02 14:31:55;;;;;;;10.50;3.00;;;;;;;20.81;60.30;97851.34;105638;1262;95773;-82
2023/10/02 14:34:42;;;;;;;5.00;2.90;;;;;;;20.82;60.48;97851.72;107185;1253;95824;-84
2023/10/02 14:37:30;;;;;;;4.70;3.10;;;;;;;20.85;60.48;97847.25;106831;1245;100468;-83
2023/10/02 14:40:38;;;;;;;5.00;2.90;;;;;;;20.85;60.61;97844.88;106969;1249;100304;-82
2023/10/02 14:43:45;;;;;;;4.10;2.70;;;;;;;20.79;60.44;97844.84;105909;1258;99328;-84
2023/10/02 14:46:43;;;;;;;4.60;2.70;;;;;;;20.73;60.24;97847.08;106429;1262;96214;-83
2023/10/02 14:49:16;;;;;;;7.60;3.50;;;;;;;20.66;60.44;97849.71;105684;1259;96350;-84
2023/10/02 14:52:24;;;;;;;4.80;3.10;;;;;;;20.59;60.61;97846.60;105717;1260;99796;-84
2023/10/02 16:12:33;;;;;;;10.00;7.10;;;;;;;17.75;69.29;97853.55;105454;1263;96358;-77
2023/10/02 16:15:40;;;;;;;10.10;6.10;;;;;;;17.62;69.64;97858.45;106566;1261;99671;-78
2023/10/02 16:18:47;;;;;;;11.20;6.00;;;;;;;17.48;69.77;97856.75;105910;1257;99687;-83
2023/10/02 16:21:47;;;;;;;7.40;5.70;;;;;;;17.32;69.82;97860.37;104903;1270;98826;-81
2023/10/02 16:24:52;;;;;;;10.00;5.70;;;;;;;17.15;70.15;97865.73;104637;1272;96059;-82
2023/10/02 16:51:41;;;;;;;15.10;10.00;;;;;;;16.74;72.10;97878.85;101740;1295;643697;-77
2023/10/02 16:54:49;;;;;;;15.90;10.70;;;;;;;16.53;72.59;97879.19;99415;1282;5343013;-79
2023/10/02 17:57:17;;;;;;;31.20;16.70;;;;;;;14.70;75.02;97901.38;106256;1260;95851;-85
2023/10/02 18:00:00;;;;;;;35.20;19.60;;;;;;;14.61;75.04;97904.73;107204;1249;95881;-86
2023/10/02 18:03:09;;;;;;;31.20;19.20;;;;;;;14.50;75.31;97904.00;107205;1247;99835;-86
2023/10/02 18:06:02;;;;;;;30.50;18.50;;;;;;;14.38;75.55;97906.42;105688;1261;100301;-86
2023/10/02 18:08:48;;;;;;;27.90;16.80;;;;;;;14.30;75.80;97906.83;104782;1272;99883;-85
2023/10/02 18:11:56;;;;;;;32.40;16.40;;;;;;;14.27;76.08;97906.31;104245;1285;96400;-82
2023/10/02 18:38:05;;;;;;;22.40;13.80;;;;;;;14.26;76.62;97908.55;101836;1290;642306;-84
2023/10/02 18:41:13;;;;;;;19.20;12.70;;;;;;;14.19;76.68;97909.77;98880;1286;5329843;-84
2023/10/02 19:16:45;;;;;;;18.50;11.10;;;;;;;13.74;77.17;97909.02;105364;1268;98176;-86
2023/10/02 19:19:52;;;;;;;18.30;12.30;;;;;;;13.62;77.43;97907.91;105704;1260;101227;-86
2023/10/02 19:22:58;;;;;;;19.00;11.50;;;;;;;13.54;77.63;97904.27;104747;1269;98908;-86
2023/10/02 19:26:04;;;;;;;20.00;11.50;;;;;;;13.43;77.53;97900.84;104043;1281;96013;-84
2023/10/02 19:42:08;;;;;;;19.80;10.20;;;;;;;13.00;77.90;97902.77;101277;1300;643819;-82
2023/10/02 19:44:59;;;;;;;21.10;12.20;;;;;;;12.93;78.43;97902.11;103616;1295;95991;-81
2023/10/02 19:48:08;;;;;;;24.50;11.40;;;;;;;12.86;78.51;97898.52;104196;1270;95834;-78
2023/10/02 19:51:15;;;;;;;34.00;18.00;;;;;;;12.79;78.75;97897.77;103034;1283;98630;-79
2023/10/02 19:54:24;;;;;;;39.60;24.00;;;;;;;12.73;78.86;97895.77;103001;1282;100734;-78
2023/10/02 20:10:17;;;;;;;32.00;19.50;;;;;;;12.51;79.08;97890.33;101262;1307;636243;-83
2023/10/02 20:12:53;;;;;;;23.60;16.10;;;;;;;12.44;79.39;97893.85;103049;1286;96078;-82
2023/10/02 20:15:42;;;;;;;21.90;14.20;;;;;;;12.36;79.58;97889.33;102800;1280;96050;-80
2023/10/02 20:18:49;;;;;;;22.40;12.60;;;;;;;12.24;79.81;97888.01;103267;1288;97962;-87
2023/10/02 20:21:59;;;;;;;20.50;11.90;;;;;;;12.16;80.32;97887.73;103402;1289;100131;-85
2023/10/02 20:56:59;;;;;;;19.40;9.60;;;;;;;12.31;81.63;97883.34;105506;1264;94364;-82
2023/10/02 21:00:07;;;;;;;17.70;9.70;;;;;;;12.24;82.11;97888.63;105575;1270;96082;-79
2023/10/02 21:03:15;;;;;;;15.80;9.50;;;;;;;12.20;82.11;97883.14;104897;1267;98653;-78
2023/10/02 21:06:22;;;;;;;14.20;8.90;;;;;;;12.13;82.11;97885.19;104372;1279;101122;-79
2023/10/02 22:08:47;;;;;;;13.80;8.30;;;;;;;11.72;82.47;97869.22;105061;1265;95946;-84
2023/10/02 22:11:54;;;;;;;14.60;8.60;;;;;;;11.67;82.60;97871.84;106058;1263;99787;-81
2023/10/02 22:15:00;;;;;;;15.50;8.60;;;;;;;11.64;82.70;97867.96;107128;1249;96039;-80
2023/10/02 22:18:08;;;;;;;13.60;8.00;;;;;;;11.60;82.62;97864.55;107129;1244;95892;-84
2023/10/02 22:21:20;;;;;;;16.80;7.80;;;;;;;11.55;82.80;97861.80;107136;1245;99722;-88
2023/10/02 22:24:16;;;;;;;12.50;8.40;;;;;;;11.50;82.86;97856.88;106364;1254;99942;-88
2023/10/02 22:27:25;;;;;;;16.40;9.00;;;;;;;11.48;83.11;97862.11;105705;1260;100075;-91
2023/10/02 22:30:09;;;;;;;13.30;8.50;;;;;;;11.48;83.03;97862.04;104474;1273;96086;-88
2023/10/02 22:32:38;;;;;;;12.90;8.50;;;;;;;11.44;83.16;97859.97;104590;1271;95870;-83
2023/10/02 22:35:36;;;;;;;12.90;7.80;;;;;;;11.46;83.11;97860.67;104540;1267;99342;-87
2023/10/02 22:38:31;;;;;;;12.90;7.70;;;;;;;11.43;82.96;97858.54;104581;1272;100262;-78
2023/10/02 22:41:38;;;;;;;12.30;7.80;;;;;;;11.36;82.92;97856.67;104728;1272;99810;-77
2023/10/02 23:08:23;;;;;;;16.90;9.10;;;;;;;11.67;83.22;97845.23;101751;1306;642545;-83
2023/10/02 23:11:30;;;;;;;13.70;8.70;;;;;;;11.67;83.40;97845.30;98969;1280;5333688;-83
2023/10/02 23:14:37;;;;;;;14.80;8.50;;;;;;;11.59;83.70;97853.30;102621;1301;95927;-80
2023/10/02 23:17:38;;;;;;;11.30;8.00;;;;;;;11.53;83.85;97848.36;101509;1296;99867;-82
2023/10/02 23:21:01;;;;;;;11.10;7.70;;;;;;;11.42;83.72;97844.44;101323;1309;102976;-82
2023/10/02 23:24:17;;;;;;;13.20;7.90;;;;;;;11.30;83.86;97840.85;101507;1309;99396;-83
